Time;durP1;ratioP1;P1;durP2;ratioP2;P2;SDS_P1;SDS_P2;PMS_P1;PMS_P2;Temp;Humidity;BMP_temperature;BMP_pressure;BME280_temperature;BME280_humidity;BME280_pressure;Samples;Min_cycle;Max_cycle;Signal;HPM_P1;HPM_P2
2023/02/17 00:00:31;;;;;;;;;;;;;;;22.09;20.39;98702.59;5112099;27;19963;-84
2023/02/17 00:02:58;;;;;;;;;;;;;;;22.16;19.99;98703.34;5100782;28;20363;-84
2023/02/17 00:05:24;;;;;;;;;;;;;;;22.39;19.96;98695.25;5095660;28;19974;-84
2023/02/17 00:07:51;;;;;;;;;;;;;;;22.35;19.99;98700.06;5112470;28;19958;-84
2023/02/17 00:10:17;;;;;;;;;;;;;;;21.78;20.50;98704.25;5111474;28;19924;-84
2023/02/17 00:12:43;;;;;;;;;;;;;;;21.95;20.25;98703.44;5111606;28;19920;-84
2023/02/17 00:15:09;;;;;;;;;;;;;;;22.35;19.98;98700.06;5103415;28;19924;-84
2023/02/17 00:17:35;;;;;;;;;;;;;;;22.68;19.70;98701.53;5091354;28;19927;-84
2023/02/17 00:20:02;;;;;;;;;;;;;;;23.04;19.84;98696.44;5108848;28;19920;-84
2023/02/17 00:22:28;;;;;;;;;;;;;;;23.08;19.26;98697.22;5112631;28;20389;-84
2023/02/17 00:24:54;;;;;;;;;;;;;;;23.19;19.42;98703.53;5106556;28;20003;-84
2023/02/17 00:27:20;;;;;;;;;;;;;;;23.29;19.41;98697.06;5109702;28;20018;-84
2023/02/17 00:29:46;;;;;;;;;;;;;;;23.06;19.08;98702.41;5112293;27;20290;-84
2023/02/17 00:32:12;;;;;;;;;;;;;;;22.46;19.67;98700.81;5109481;28;19928;-84
2023/02/17 00:34:38;;;;;;;;;;;;;;;22.07;19.87;98697.41;5103828;28;19923;-84
2023/02/17 00:37:04;;;;;;;;;;;;;;;22.13;20.54;98695.78;5107645;28;19920;-84
2023/02/17 00:39:30;;;;;;;;;;;;;;;22.15;20.27;98695.38;5106057;28;19920;-84
2023/02/17 00:41:56;;;;;;;;;;;;;;;21.74;20.23;98698.69;5115523;28;20018;-84
2023/02/17 00:44:23;;;;;;;;;;;;;;;21.90;20.30;98692.66;5114139;27;19951;-84
2023/02/17 00:46:49;;;;;;;;;;;;;;;22.15;20.79;98693.38;5115483;28;20283;-84
2023/02/17 00:49:17;;;;;;;;;;;;;;;22.47;20.02;98685.63;5100892;28;19947;-84
2023/02/17 00:51:43;;;;;;;;;;;;;;;22.80;19.93;98689.03;5099479;28;20283;-84
2023/02/17 00:54:10;;;;;;;;;;;;;;;22.63;19.55;98683.16;5101048;28;19931;-84
2023/02/17 00:56:36;;;;;;;;;;;;;;;22.61;20.06;98670.78;5110760;28;19980;-84
2023/02/17 00:59:02;;;;;;;;;;;;;;;22.67;19.43;98672.72;5111646;28;19920;-84
2023/02/17 01:01:28;;;;;;;;;;;;;;;22.90;19.63;98668.53;5100415;27;20379;-84
2023/02/17 01:03:54;;;;;;;;;;;;;;;22.95;19.42;98665.31;5101728;28;19916;-84
2023/02/17 01:06:22;;;;;;;;;;;;;;;22.89;19.46;98661.38;5087410;28;20018;-84
2023/02/17 01:08:48;;;;;;;;;;;;;;;22.77;19.51;98667.47;5100075;28;19916;-84
2023/02/17 01:11:18;;;;;;;;;;;;;;;22.42;19.51;98662.88;5114189;28;19915;-84
2023/02/17 01:13:44;;;;;;;;;;;;;;;22.23;20.08;98658.56;5109789;28;19920;-83
2023/02/17 01:16:15;;;;;;;;;;;;;;;22.33;19.69;98649.34;5108899;28;19920;-83
2023/02/17 01:18:41;;;;;;;;;;;;;;;22.23;20.12;98655.78;5111487;28;19928;-83
2023/02/17 01:21:14;;;;;;;;;;;;;;;22.29;19.87;98645.75;5096684;28;19938;-84
2023/02/17 01:23:40;;;;;;;;;;;;;;;22.48;19.88;98642.44;5111097;28;19927;-84
2023/02/17 01:26:11;;;;;;;;;;;;;;;22.17;20.02;98640.59;5114411;28;19928;-84
2023/02/17 01:28:37;;;;;;;;;;;;;;;22.01;20.27;98638.28;5112605;28;19920;-83
2023/02/17 01:31:07;;;;;;;;;;;;;;;22.27;20.39;98636.97;5114821;28;20394;-83
2023/02/17 01:33:33;;;;;;;;;;;;;;;22.36;19.82;98630.91;5108104;27;19920;-84
2023/02/17 01:36:06;;;;;;;;;;;;;;;22.50;20.13;98622.41;5109397;28;19923;-84
2023/02/17 01:38:33;;;;;;;;;;;;;;;22.69;19.76;98627.50;5106712;28;20073;-84
2023/02/17 01:40:59;;;;;;;;;;;;;;;22.29;19.89;98622.56;5107485;28;19919;-84
2023/02/17 01:43:25;;;;;;;;;;;;;;;22.23;20.26;98619.41;5103296;28;19924;-84
2023/02/17 01:45:55;;;;;;;;;;;;;;;22.18;20.56;98605.06;5103493;28;20396;-84
2023/02/17 01:48:23;;;;;;;;;;;;;;;22.31;20.03;98595.00;5103677;28;19926;-84
2023/02/17 01:50:52;;;;;;;;;;;;;;;22.07;20.06;98598.72;5103237;28;19920;-84
2023/02/17 01:53:20;;;;;;;;;;;;;;;22.00;20.48;98603.16;5111990;28;19966;-84
2023/02/17 01:55:47;;;;;;;;;;;;;;;22.17;20.36;98598.66;5105509;28;19965;-84
2023/02/17 01:58:15;;;;;;;;;;;;;;;21.83;20.36;98603.22;5101247;28;19977;-84
2023/02/17 02:00:41;;;;;;;;;;;;;;;21.53;20.76;98597.34;5100702;28;19920;-84
2023/02/17 02:03:09;;;;;;;;;;;;;;;21.76;20.82;98606.03;5098629;28;19919;-84
2023/02/17 02:05:36;;;;;;;;;;;;;;;21.98;20.82;98607.56;5110054;28;19924;-84
2023/02/17 02:08:03;;;;;;;;;;;;;;;22.20;20.63;98597.84;5101755;28;19919;-84
2023/02/17 02:10:29;;;;;;;;;;;;;;;22.50;20.15;98592.44;5112101;28;19922;-84
2023/02/17 02:12:55;;;;;;;;;;;;;;;22.71;20.22;98594.31;5096200;28;19920;-84
2023/02/17 02:15:22;;;;;;;;;;;;;;;22.82;20.13;98592.22;5107448;28;19916;-84
2023/02/17 02:17:54;;;;;;;;;;;;;;;22.77;19.93;98587.06;5102569;28;19924;-84
2023/02/17 02:20:39;;;;;;;;;;;;;;;22.68;20.11;98595.16;5107320;28;19915;-84
2023/02/17 02:23:05;;;;;;;;;;;;;;;22.60;20.58;98587.97;5111068;28;20399;-84
2023/02/17 02:25:34;;;;;;;;;;;;;;;22.52;20.35;98578.81;5109502;28;19943;-84
2023/02/17 02:28:15;;;;;;;;;;;;;;;22.74;20.26;98590.69;5109354;28;19931;-84
2023/02/17 02:30:50;;;;;;;;;;;;;;;22.66;20.06;98592.75;5105719;28;19920;-84
2023/02/17 02:33:33;;;;;;;;;;;;;;;22.90;20.39;98590.94;5106579;28;20379;-84
2023/02/17 02:36:02;;;;;;;;;;;;;;;22.83;20.39;98590.22;5099884;28;19924;-83
2023/02/17 02:38:39;;;;;;;;;;;;;;;23.00;19.81;98584.47;5109958;28;19920;-83
2023/02/17 02:41:11;;;;;;;;;;;;;;;22.98;19.87;98588.88;5107646;28;19919;-83
2023/02/17 02:43:37;;;;;;;;;;;;;;;22.69;20.46;98596.72;5109793;28;19924;-83
2023/02/17 02:46:03;;;;;;;;;;;;;;;22.90;20.23;98585.34;5111171;28;19920;-83
2023/02/17 02:48:29;;;;;;;;;;;;;;;22.94;20.18;98591.69;5105573;28;20085;-83
2023/02/17 02:51:13;;;;;;;;;;;;;;;23.09;20.17;98586.75;5111509;28;19926;-83
2023/02/17 02:53:46;;;;;;;;;;;;;;;23.05;20.24;98598.03;5102602;28;21543;-83
2023/02/17 02:56:30;;;;;;;;;;;;;;;22.95;20.58;98593.31;5099860;28;19916;-83
2023/02/17 02:59:12;;;;;;;;;;;;;;;23.28;20.33;98595.38;5110290;28;20379;-83
2023/02/17 03:01:52;;;;;;;;;;;;;;;23.36;19.67;98601.75;5110074;28;19915;-83
2023/02/17 03:04:35;;;;;;;;;;;;;;;23.22;20.18;98596.25;5101121;28;19959;-83
2023/02/17 03:07:04;;;;;;;;;;;;;;;23.36;19.57;98596.91;5095670;28;19956;-83
2023/02/17 03:09:30;;;;;;;;;;;;;;;23.13;19.77;98591.13;5112399;28;19923;-83
2023/02/17 03:11:57;;;;;;;;;;;;;;;23.15;20.04;98590.72;5101090;28;19965;-83
2023/02/17 03:14:24;;;;;;;;;;;;;;;23.05;19.85;98600.81;5098595;28;19916;-83
2023/02/17 03:16:50;;;;;;;;;;;;;;;22.87;20.25;98591.75;5101594;28;19928;-83
2023/02/17 03:19:17;;;;;;;;;;;;;;;22.95;20.32;98590.50;5113078;28;19916;-83
2023/02/17 03:21:48;;;;;;;;;;;;;;;22.76;20.23;98582.66;5110874;28;19924;-83
2023/02/17 03:24:14;;;;;;;;;;;;;;;23.03;19.85;98594.84;5105775;28;19920;-84
2023/02/17 03:26:40;;;;;;;;;;;;;;;23.10;19.94;98577.97;5107648;28;19924;-84
2023/02/17 03:29:06;;;;;;;;;;;;;;;23.25;20.05;98590.59;5116839;28;19965;-84
2023/02/17 03:31:33;;;;;;;;;;;;;;;23.25;19.38;98592.59;5108346;28;19920;-83
2023/02/17 03:33:59;;;;;;;;;;;;;;;23.40;19.54;98590.47;5115574;27;19919;-83
2023/02/17 03:36:25;;;;;;;;;;;;;;;23.65;19.16;98586.19;5109523;28;19924;-83
2023/02/17 03:38:51;;;;;;;;;;;;;;;23.30;19.56;98587.34;5114200;27;19920;-83
2023/02/17 03:41:17;;;;;;;;;;;;;;;23.19;19.75;98583.06;5106831;28;20052;-83
2023/02/17 03:43:43;;;;;;;;;;;;;;;23.29;19.65;98579.38;5115934;28;20479;-83
2023/02/17 03:46:10;;;;;;;;;;;;;;;23.49;19.51;98565.53;5111614;28;20014;-83
2023/02/17 03:48:36;;;;;;;;;;;;;;;23.12;20.05;98577.53;5114002;28;19919;-83
2023/02/17 03:51:34;;;;;;;;;;;;;;;23.02;20.04;98575.63;5107957;27;19923;-83
2023/02/17 03:54:00;;;;;;;;;;;;;;;23.09;19.99;98579.16;5054757;28;21827;-83
2023/02/17 03:56:26;;;;;;;;;;;;;;;23.17;20.57;98574.28;5108161;28;19920;-83
2023/02/17 03:58:52;;;;;;;;;;;;;;;23.32;20.29;98567.31;5112409;28;19977;-83
2023/02/17 04:01:18;;;;;;;;;;;;;;;23.32;19.91;98565.31;5102033;27;19920;-83
2023/02/17 04:03:44;;;;;;;;;;;;;;;23.46;20.22;98572.78;5114664;28;19920;-83
2023/02/17 04:06:10;;;;;;;;;;;;;;;23.65;19.97;98577.75;5103407;28;20034;-83
2023/02/17 04:08:37;;;;;;;;;;;;;;;23.55;20.31;98575.88;5107271;27;19959;-83
2023/02/17 04:11:04;;;;;;;;;;;;;;;23.51;20.38;98566.72;5112036;28;19927;-83
2023/02/17 04:13:31;;;;;;;;;;;;;;;23.46;20.45;98557.97;5108613;28;19924;-83
2023/02/17 04:15:57;;;;;;;;;;;;;;;23.55;20.34;98559.06;5102874;28;19920;-83
2023/02/17 04:18:23;;;;;;;;;;;;;;;23.65;20.15;98557.34;5111708;28;19920;-83
2023/02/17 04:20:50;;;;;;;;;;;;;;;23.54;19.94;98562.28;5113387;28;19920;-83
2023/02/17 04:23:16;;;;;;;;;;;;;;;23.46;20.11;98552.38;5113899;28;19960;-83
2023/02/17 04:25:43;;;;;;;;;;;;;;;23.63;19.80;98548.56;5110172;27;19920;-83
2023/02/17 04:28:09;;;;;;;;;;;;;;;23.88;20.14;98560.25;5110600;28;19946;-83
2023/02/17 04:30:35;;;;;;;;;;;;;;;24.08;19.69;98554.78;5109504;28;19927;-83
2023/02/17 04:33:02;;;;;;;;;;;;;;;23.76;20.23;98558.78;5102578;27;19928;-82
2023/02/17 04:35:28;;;;;;;;;;;;;;;23.97;19.92;98550.09;5108443;27;20379;-82
2023/02/17 04:37:54;;;;;;;;;;;;;;;23.88;19.98;98555.44;5109159;27;19927;-83
2023/02/17 04:40:20;;;;;;;;;;;;;;;24.04;19.97;98557.59;5107648;27;19923;-83
2023/02/17 04:42:46;;;;;;;;;;;;;;;24.33;19.75;98546.78;5100694;28;19927;-83
2023/02/17 04:45:13;;;;;;;;;;;;;;;24.42;19.63;98547.84;5095280;28;20019;-82
2023/02/17 04:47:39;;;;;;;;;;;;;;;24.52;19.23;98541.28;5109549;27;19919;-82
2023/02/17 04:50:07;;;;;;;;;;;;;;;24.48;19.25;98554.56;5106157;28;20454;-82
2023/02/17 04:52:33;;;;;;;;;;;;;;;24.34;19.89;98548.41;5108594;28;19920;-82
2023/02/17 04:54:59;;;;;;;;;;;;;;;24.11;19.63;98553.97;5105713;28;19927;-82
2023/02/17 04:57:26;;;;;;;;;;;;;;;23.80;20.27;98547.53;5101426;28;20423;-83
2023/02/17 04:59:51;;;;;;;;;;;;;;;24.04;20.10;98552.78;5111564;27;19940;-82
2023/02/17 05:02:18;;;;;;;;;;;;;;;24.03;20.13;98551.22;5095624;28;19920;-82
2023/02/17 05:04:44;;;;;;;;;;;;;;;24.21;19.77;98539.75;5104817;27;19932;-83
2023/02/17 05:07:10;;;;;;;;;;;;;;;24.32;19.79;98551.59;5106699;28;19924;-83
2023/02/17 05:09:36;;;;;;;;;;;;;;;23.76;20.81;98543.97;5102694;28;19966;-84
2023/02/17 05:12:04;;;;;;;;;;;;;;;23.84;20.41;98549.09;5110182;28;20368;-83
2023/02/17 05:14:30;;;;;;;;;;;;;;;23.77;20.04;98545.56;5110322;28;19923;-83
2023/02/17 05:16:56;;;;;;;;;;;;;;;24.19;20.04;98552.63;5104590;28;20019;-83
2023/02/17 05:19:22;;;;;;;;;;;;;;;24.40;20.31;98543.88;5104336;28;19999;-83
2023/02/17 05:21:48;;;;;;;;;;;;;;;24.61;19.66;98535.09;5103641;28;19923;-84
2023/02/17 05:24:14;;;;;;;;;;;;;;;24.71;19.52;98534.91;5103932;28;20018;-84
2023/02/17 05:26:40;;;;;;;;;;;;;;;24.82;19.90;98534.78;5109720;28;19924;-83
2023/02/17 05:29:06;;;;;;;;;;;;;;;24.96;19.96;98530.91;5103072;28;19919;-84
2023/02/17 05:31:32;;;;;;;;;;;;;;;24.90;19.46;98529.81;5110406;28;19922;-84
2023/02/17 05:33:58;;;;;;;;;;;;;;;24.87;19.79;98534.28;5101507;28;19970;-84
2023/02/17 05:36:24;;;;;;;;;;;;;;;24.95;19.93;98543.38;5108119;28;19967;-84
2023/02/17 05:38:50;;;;;;;;;;;;;;;24.76;19.56;98538.47;5106546;28;20011;-83
2023/02/17 05:41:17;;;;;;;;;;;;;;;24.99;19.84;98527.25;5109419;27;19927;-85
2023/02/17 05:43:44;;;;;;;;;;;;;;;24.91;19.73;98535.00;5106463;28;19927;-83
2023/02/17 05:46:10;;;;;;;;;;;;;;;24.68;20.02;98537.81;5105392;28;19931;-81
2023/02/17 05:48:36;;;;;;;;;;;;;;;24.60;19.66;98536.31;5102833;28;19920;-83
2023/02/17 05:51:02;;;;;;;;;;;;;;;24.82;19.70;98531.97;5103137;28;19967;-83
2023/02/17 05:53:28;;;;;;;;;;;;;;;24.90;19.66;98535.44;5102722;28;19915;-82
2023/02/17 05:55:54;;;;;;;;;;;;;;;24.95;19.45;98530.09;5108340;27;20375;-85
2023/02/17 05:58:20;;;;;;;;;;;;;;;25.03;19.62;98534.38;5113458;28;19926;-85
2023/02/17 06:00:46;;;;;;;;;;;;;;;25.22;20.01;98516.75;5112685;28;20002;-85
2023/02/17 06:03:13;;;;;;;;;;;;;;;25.26;19.22;98519.50;5113540;28;19965;-85
2023/02/17 06:05:39;;;;;;;;;;;;;;;25.37;19.72;98522.88;5113848;28;19924;-85
2023/02/17 06:08:05;;;;;;;;;;;;;;;25.33;19.35;98520.16;5114249;28;19927;-85
2023/02/17 06:10:31;;;;;;;;;;;;;;;25.11;19.65;98518.97;5110884;28;19916;-85
2023/02/17 06:12:58;;;;;;;;;;;;;;;25.33;20.10;98511.72;5101895;28;20394;-85
2023/02/17 06:15:24;;;;;;;;;;;;;;;25.39;20.03;98512.78;5111569;28;19919;-85
2023/02/17 06:17:50;;;;;;;;;;;;;;;25.34;19.74;98518.91;5112024;28;19945;-85
2023/02/17 06:20:16;;;;;;;;;;;;;;;24.91;19.90;98515.34;5112164;28;19916;-85
2023/02/17 06:22:42;;;;;;;;;;;;;;;24.87;20.26;98506.19;5112318;28;19999;-85
2023/02/17 06:25:08;;;;;;;;;;;;;;;25.15;20.14;98496.44;5113725;28;20010;-85
2023/02/17 06:27:35;;;;;;;;;;;;;;;25.45;19.22;98498.25;5114073;28;19925;-85
2023/02/17 06:30:02;;;;;;;;;;;;;;;25.60;19.23;98491.13;5102509;28;19933;-85
2023/02/17 06:32:28;;;;;;;;;;;;;;;25.72;19.80;98491.22;5093332;28;19965;-85
2023/02/17 06:34:54;;;;;;;;;;;;;;;25.63;19.63;98488.22;5093545;28;19928;-85
2023/02/17 06:37:20;;;;;;;;;;;;;;;25.59;19.83;98483.91;5075531;28;19920;-85
2023/02/17 06:39:46;;;;;;;;;;;;;;;25.83;19.44;98480.56;5101186;28;19922;-85
2023/02/17 06:42:12;;;;;;;;;;;;;;;25.80;19.60;98487.03;5097087;28;19920;-85
2023/02/17 06:44:38;;;;;;;;;;;;;;;25.65;19.68;98482.19;5091893;28;20291;-85
2023/02/17 06:47:04;;;;;;;;;;;;;;;25.69;19.76;98478.06;5105400;28;19915;-85
2023/02/17 06:49:31;;;;;;;;;;;;;;;25.80;20.00;98469.38;5113694;28;19920;-85
2023/02/17 06:51:56;;;;;;;;;;;;;;;25.80;19.60;98478.59;5113705;28;19923;-85
2023/02/17 06:54:23;;;;;;;;;;;;;;;25.39;19.64;98479.06;5113858;28;19920;-85
2023/02/17 06:56:49;;;;;;;;;;;;;;;25.49;19.38;98482.91;5110942;28;20044;-85
2023/02/17 06:59:15;;;;;;;;;;;;;;;25.35;20.59;98480.34;5097279;28;20392;-85
2023/02/17 07:01:41;;;;;;;;;;;;;;;25.15;20.22;98494.41;5117720;28;19919;-85
2023/02/17 07:04:07;;;;;;;;;;;;;;;25.44;20.33;98503.09;5105400;28;19916;-85
2023/02/17 07:06:33;;;;;;;;;;;;;;;25.67;19.93;98505.81;5097736;28;19931;-85
2023/02/17 07:09:00;;;;;;;;;;;;;;;25.85;20.01;98497.78;5108768;28;19993;-85
2023/02/17 07:11:30;;;;;;;;;;;;;;;25.97;20.52;98501.94;5096966;28;19959;-85
2023/02/17 07:13:56;;;;;;;;;;;;;;;26.30;20.53;98497.16;5096817;28;19961;-85
2023/02/17 07:16:22;;;;;;;;;;;;;;;26.46;20.56;98500.78;5096937;28;20432;-85
2023/02/17 07:18:48;;;;;;;;;;;;;;;26.39;20.24;98497.34;5078754;28;19962;-85
2023/02/17 07:21:14;;;;;;;;;;;;;;;26.19;20.80;98503.03;5097639;28;19917;-86
2023/02/17 07:23:40;;;;;;;;;;;;;;;26.12;20.68;98500.41;5096878;28;19916;-85
2023/02/17 07:26:08;;;;;;;;;;;;;;;25.97;20.74;98499.94;5096625;28;19923;-85
2023/02/17 07:28:35;;;;;;;;;;;;;;;25.97;20.95;98504.75;5096755;28;19935;-86
2023/02/17 07:31:08;;;;;;;;;;;;;;;26.07;20.92;98506.50;5097115;28;20387;-86
2023/02/17 07:33:34;;;;;;;;;;;;;;;25.88;21.33;98496.13;5096693;28;19920;-86
2023/02/17 07:36:08;;;;;;;;;;;;;;;25.16;21.57;98496.00;5096982;28;19981;-86
2023/02/17 07:38:34;;;;;;;;;;;;;;;25.72;21.93;98499.66;5097020;28;19923;-86
2023/02/17 07:41:04;;;;;;;;;;;;;;;26.13;21.56;98493.56;5110048;28;20287;-86
2023/02/17 07:43:30;;;;;;;;;;;;;;;26.45;21.32;98499.19;5116908;28;19920;-86
2023/02/17 07:45:56;;;;;;;;;;;;;;;26.52;20.76;98496.19;5116918;28;19916;-86
2023/02/17 07:48:22;;;;;;;;;;;;;;;26.16;21.53;98492.69;5116190;28;19920;-86
2023/02/17 07:50:48;;;;;;;;;;;;;;;26.45;20.96;98484.31;5116847;28;19943;-86
2023/02/17 07:53:14;;;;;;;;;;;;;;;26.34;20.97;98476.16;5098351;28;19935;-86
2023/02/17 07:55:40;;;;;;;;;;;;;;;26.54;21.76;98476.81;5080855;28;19924;-86
2023/02/17 07:58:06;;;;;;;;;;;;;;;26.80;21.53;98468.53;5096320;28;19966;-86
2023/02/17 08:00:32;;;;;;;;;;;;;;;26.92;21.08;98467.81;5096170;28;20367;-86
2023/02/17 08:02:58;;;;;;;;;;;;;;;26.98;21.77;98466.06;5108106;28;19919;-86
2023/02/17 08:05:24;;;;;;;;;;;;;;;27.11;21.46;98469.72;5116520;28;19930;-86
2023/02/17 08:13:18;;;;;;;;;;;;;;;27.34;21.36;98458.16;5112418;28;19919;-86
2023/02/17 08:13:25;;;;;;;;;;;;;;;27.26;21.90;98456.78;5095936;28;20012;-86
2023/02/17 08:15:51;;;;;;;;;;;;;;;27.63;21.74;98461.75;5095814;28;20287;-86
2023/02/17 08:18:17;;;;;;;;;;;;;;;28.00;21.54;98451.75;5095953;28;19916;-86
2023/02/17 08:20:43;;;;;;;;;;;;;;;28.12;21.11;98459.44;5095679;28;20440;-86
2023/02/17 08:23:09;;;;;;;;;;;;;;;27.69;21.93;98453.50;5095788;28;19920;-86
2023/02/17 08:25:36;;;;;;;;;;;;;;;27.57;21.46;98446.63;5077321;28;19916;-86
2023/02/17 08:28:03;;;;;;;;;;;;;;;27.91;21.75;98446.75;5078183;28;19927;-86
2023/02/17 08:30:29;;;;;;;;;;;;;;;27.88;21.73;98447.66;5095752;28;19916;-86
2023/02/17 08:32:55;;;;;;;;;;;;;;;28.00;21.36;98437.66;5097443;28;19920;-86
2023/02/17 08:35:21;;;;;;;;;;;;;;;28.28;21.25;98430.28;5077406;28;19931;-86
2023/02/17 08:37:48;;;;;;;;;;;;;;;27.41;21.83;98441.06;5095631;28;19920;-86
2023/02/17 08:40:14;;;;;;;;;;;;;;;27.63;21.98;98447.66;5095014;28;20287;-86
2023/02/17 08:42:40;;;;;;;;;;;;;;;27.54;22.60;98441.88;5095268;28;19975;-86
2023/02/17 08:45:06;;;;;;;;;;;;;;;27.39;21.93;98440.72;5095926;28;19955;-86
2023/02/17 08:47:33;;;;;;;;;;;;;;;27.14;22.53;98437.81;5101945;28;19920;-86
2023/02/17 08:49:59;;;;;;;;;;;;;;;27.50;22.28;98426.28;5115493;28;19920;-86
2023/02/17 08:52:25;;;;;;;;;;;;;;;27.76;22.09;98434.34;5115483;28;19968;-86
2023/02/17 08:54:52;;;;;;;;;;;;;;;27.82;21.46;98434.56;5097086;28;19920;-86
2023/02/17 08:57:19;;;;;;;;;;;;;;;27.99;22.14;98416.28;5109864;28;19932;-87
2023/02/17 08:59:46;;;;;;;;;;;;;;;27.23;22.80;98423.84;5115452;28;19965;-87
2023/02/17 09:02:13;;;;;;;;;;;;;;;27.19;23.13;98418.31;5114557;28;19916;-86
2023/02/17 09:04:39;;;;;;;;;;;;;;;27.50;22.44;98420.66;5115495;28;19997;-86
2023/02/17 09:07:08;;;;;;;;;;;;;;;27.14;23.34;98416.03;5114446;28;20386;-86
2023/02/17 09:09:34;;;;;;;;;;;;;;;26.91;22.77;98426.81;5115218;28;20016;-86
2023/02/17 09:12:00;;;;;;;;;;;;;;;26.92;22.63;98423.53;5114611;28;19919;-86
2023/02/17 09:14:26;;;;;;;;;;;;;;;27.11;22.70;98427.41;5115259;28;20006;-86
2023/02/17 09:16:53;;;;;;;;;;;;;;;26.16;22.33;98422.31;5114961;28;19931;-86
2023/02/17 09:19:20;;;;;;;;;;;;;;;26.74;23.17;98426.03;5113601;28;19968;-86
2023/02/17 09:21:47;;;;;;;;;;;;;;;26.47;24.68;98417.88;5114695;28;20412;-86
2023/02/17 09:24:13;;;;;;;;;;;;;;;26.73;22.90;98421.59;5115001;28;19916;-87
2023/02/17 09:26:40;;;;;;;;;;;;;;;27.34;22.47;98411.03;5114892;28;19961;-86
2023/02/17 09:29:06;;;;;;;;;;;;;;;26.95;22.02;98413.38;5114810;28;19915;-87
2023/02/17 09:31:33;;;;;;;;;;;;;;;26.80;22.04;98415.00;5114749;28;19915;-87
2023/02/17 09:33:59;;;;;;;;;;;;;;;26.83;23.33;98414.94;5114625;28;19973;-87
2023/02/17 09:36:29;;;;;;;;;;;;;;;27.21;22.54;98420.69;5113710;28;19979;-87
2023/02/17 09:38:55;;;;;;;;;;;;;;;27.47;22.06;98413.09;5097128;28;19916;-87
2023/02/17 09:41:21;;;;;;;;;;;;;;;27.10;22.59;98408.91;5094275;28;19923;-87
2023/02/17 09:43:48;;;;;;;;;;;;;;;27.39;22.51;98409.69;5094170;28;19923;-87
2023/02/17 09:46:18;;;;;;;;;;;;;;;26.21;23.41;98404.88;5094273;28;19916;-87
2023/02/17 09:48:46;;;;;;;;;;;;;;;26.57;23.30;98393.47;5094149;28;20019;-86
2023/02/17 09:51:18;;;;;;;;;;;;;;;27.11;23.42;98396.41;5094967;28;19920;-86
2023/02/17 09:53:50;;;;;;;;;;;;;;;27.22;23.49;98379.97;5094802;28;19930;-87
2023/02/17 09:56:23;;;;;;;;;;;;;;;27.72;23.67;98384.91;5075964;28;19923;-86
2023/02/17 09:58:52;;;;;;;;;;;;;;;26.65;25.17;98392.84;5094142;28;20291;-87
2023/02/17 10:01:19;;;;;;;;;;;;;;;27.45;24.06;98388.16;5093928;28;19916;-87
2023/02/17 10:03:49;;;;;;;;;;;;;;;27.33;23.57;98391.72;5093943;28;20386;-87
2023/02/17 10:06:15;;;;;;;;;;;;;;;27.62;23.93;98398.09;5093657;28;19932;-86
2023/02/17 10:08:48;;;;;;;;;;;;;;;27.44;23.73;98397.88;5093852;28;19916;-86
2023/02/17 10:11:29;;;;;;;;;;;;;;;26.68;24.06;98400.41;5094323;28;19916;-86
2023/02/17 10:13:58;;;;;;;;;;;;;;;26.73;24.55;98393.44;5093719;28;19916;-86
2023/02/17 10:16:29;;;;;;;;;;;;;;;26.84;24.42;98385.50;5093936;28;19916;-86
2023/02/17 10:19:09;;;;;;;;;;;;;;;27.49;23.99;98380.41;5093771;28;19952;-86
2023/02/17 10:21:38;;;;;;;;;;;;;;;26.98;25.26;98373.81;5093856;28;19922;-86
2023/02/17 10:24:05;;;;;;;;;;;;;;;26.69;24.07;98368.19;5104184;28;20290;-86
2023/02/17 10:26:54;;;;;;;;;;;;;;;26.46;24.68;98364.81;5102718;28;19993;-86
2023/02/17 10:29:29;;;;;;;;;;;;;;;26.64;24.41;98370.75;5092123;28;19967;-86
2023/02/17 10:32:14;;;;;;;;;;;;;;;26.90;24.60;98366.81;5097790;28;20007;-86
2023/02/17 10:34:57;;;;;;;;;;;;;;;26.62;25.73;98367.59;5097737;28;19927;-87
2023/02/17 10:37:41;;;;;;;;;;;;;;;27.28;24.05;98355.63;5098944;28;19916;-86
2023/02/17 10:40:16;;;;;;;;;;;;;;;27.09;24.15;98350.97;5118262;28;19916;-87
2023/02/17 10:42:44;;;;;;;;;;;;;;;26.63;24.56;98350.25;5096815;28;21354;-87
2023/02/17 10:45:17;;;;;;;;;;;;;;;25.85;27.25;98350.69;5101284;28;19969;-86
2023/02/17 10:47:43;;;;;;;;;;;;;;;26.22;25.47;98350.16;5101497;28;19947;-86
2023/02/17 10:50:20;;;;;;;;;;;;;;;26.85;24.55;98349.66;5117621;28;19982;-86
2023/02/17 10:52:47;;;;;;;;;;;;;;;26.77;24.36;98349.06;5118037;28;19920;-86
2023/02/17 10:55:27;;;;;;;;;;;;;;;26.09;25.04;98335.22;5118128;28;19969;-86
2023/02/17 10:57:57;;;;;;;;;;;;;;;25.46;26.61;98336.78;5118042;28;19923;-86
2023/02/17 11:00:23;;;;;;;;;;;;;;;25.19;26.40;98332.16;5118210;28;20004;-86
2023/02/17 11:02:51;;;;;;;;;;;;;;;25.09;27.17;98326.75;5099136;28;19969;-86
2023/02/17 11:05:24;;;;;;;;;;;;;;;24.68;26.37;98316.75;5097340;28;19974;-86
2023/02/17 11:07:54;;;;;;;;;;;;;;;25.22;26.16;98328.47;5097179;28;19982;-86
2023/02/17 11:10:20;;;;;;;;;;;;;;;24.62;26.68;98314.91;5097316;28;20464;-86
2023/02/17 11:12:48;;;;;;;;;;;;;;;25.30;26.35;98315.81;5097507;28;20006;-86
2023/02/17 11:15:17;;;;;;;;;;;;;;;25.90;25.90;98308.78;5097265;28;19970;-86
2023/02/17 11:17:43;;;;;;;;;;;;;;;26.16;25.46;98311.75;5097534;28;19916;-86
2023/02/17 11:20:12;;;;;;;;;;;;;;;25.47;25.50;98305.41;5117563;28;19915;-86
2023/02/17 11:22:44;;;;;;;;;;;;;;;25.84;25.59;98299.28;5117356;28;19961;-87
2023/02/17 11:25:21;;;;;;;;;;;;;;;25.86;25.49;98302.44;5101025;28;19972;-86
2023/02/17 11:27:51;;;;;;;;;;;;;;;26.36;24.86;98299.13;5097813;28;19916;-86
2023/02/17 11:30:17;;;;;;;;;;;;;;;25.77;25.73;98290.22;5096730;28;19917;-86
2023/02/17 11:32:44;;;;;;;;;;;;;;;26.16;25.70;98287.22;5096396;28;20375;-87
2023/02/17 11:35:21;;;;;;;;;;;;;;;25.87;24.91;98286.34;5097458;28;19920;-86
2023/02/17 11:37:47;;;;;;;;;;;;;;;25.22;26.69;98277.88;5096507;28;19973;-86
2023/02/17 11:40:23;;;;;;;;;;;;;;;24.79;25.28;98287.69;5113879;28;20293;-86
2023/02/17 11:43:00;;;;;;;;;;;;;;;24.89;25.93;98279.03;5115978;28;19920;-86
2023/02/17 11:45:39;;;;;;;;;;;;;;;24.80;25.72;98281.66;5117089;28;19916;-85
2023/02/17 11:48:23;;;;;;;;;;;;;;;24.97;25.38;98276.88;5116819;28;19926;-86
2023/02/17 11:50:58;;;;;;;;;;;;;;;24.83;25.43;98265.94;5116594;28;19923;-86
2023/02/17 11:53:28;;;;;;;;;;;;;;;24.34;26.14;98270.56;5078917;28;19945;-86
2023/02/17 11:56:10;;;;;;;;;;;;;;;24.45;26.03;98257.91;5096256;28;19924;-86
2023/02/17 11:58:45;;;;;;;;;;;;;;;24.32;26.35;98242.91;5096371;28;20290;-85
2023/02/17 12:01:23;;;;;;;;;;;;;;;25.03;25.18;98241.41;5096137;28;20396;-86
2023/02/17 12:04:12;;;;;;;;;;;;;;;25.34;24.66;98242.66;5096123;28;19963;-86
2023/02/17 12:06:56;;;;;;;;;;;;;;;25.46;25.81;98238.41;5092154;28;20016;-85
2023/02/17 12:09:22;;;;;;;;;;;;;;;;;;5115660;28;19920;-86
2023/02/17 12:11:51;;;;;;;;;;;;;;;23.66;27.07;98230.94;5116315;28;20295;-86
2023/02/17 12:14:32;;;;;;;;;;;;;;;24.84;25.49;98228.19;5116701;28;19916;-86
2023/02/17 12:16:58;;;;;;;;;;;;;;;25.20;25.58;98231.78;5116323;28;19984;-86
2023/02/17 12:19:40;;;;;;;;;;;;;;;24.25;25.89;98229.03;5116097;28;20371;-86
2023/02/17 12:22:12;;;;;;;;;;;;;;;23.65;27.43;98232.94;5116304;28;19938;-86
2023/02/17 12:24:43;;;;;;;;;;;;;;;24.10;26.42;98236.16;5115808;28;19923;-85
2023/02/17 12:27:12;;;;;;;;;;;;;;;24.65;25.78;98233.38;5103459;28;19922;-86
2023/02/17 12:29:54;;;;;;;;;;;;;;;24.42;26.08;98224.28;5095574;28;20006;-86
2023/02/17 12:32:29;;;;;;;;;;;;;;;24.20;26.48;98225.94;5096631;28;20461;-86
2023/02/17 12:34:58;;;;;;;;;;;;;;;24.56;27.12;98218.34;5111851;28;19920;-86
2023/02/17 12:37:27;;;;;;;;;;;;;;;24.09;27.22;98219.72;5095649;28;19920;-86
2023/02/17 12:39:55;;;;;;;;;;;;;;;24.62;25.79;98216.63;5095384;28;20304;-86
2023/02/17 12:42:21;;;;;;;;;;;;;;;24.81;25.42;98221.44;5096170;28;19920;-85
2023/02/17 12:44:52;;;;;;;;;;;;;;;24.76;25.53;98219.16;5097265;28;19922;-86
2023/02/17 12:47:21;;;;;;;;;;;;;;;24.37;25.86;98205.13;5095627;28;19924;-86
2023/02/17 12:49:51;;;;;;;;;;;;;;;24.78;25.74;98208.28;5095081;28;19916;-86
2023/02/17 12:52:20;;;;;;;;;;;;;;;24.64;26.69;98203.72;5095110;28;19922;-86
2023/02/17 12:55:05;;;;;;;;;;;;;;;25.41;25.14;98205.94;5095398;28;20288;-86
2023/02/17 12:57:33;;;;;;;;;;;;;;;25.67;25.24;98198.50;5095198;28;20028;-86